Unionville, New York
Current Conditions -  °F | °C
As of 5:53 PM on Tuesday 21 Oct 2014 (Local Time) from KFWN Reporting Station
Overcast Overcast  
Wind Chill: 57°   Ceiling: 1400
Heat Index: 57°   Visibility: 10mi
Dew Point: 49°   Wind: 9mph
Humidity: 74%   Direction: 30°NNE
Pressure: 29.87"   Gusts: NA
Location:  41.3°N, 74.56°W
Report Text: KFWN 212153Z AUTO 03008KT 10SM OVC014 14/09 A2987 RMK AO2 LTG DSNT SE AND S SLP115 T01390094
Loading
Personal Weather Stations






























Interactive Weather Map New forecast layout! Learn more

10-Day Weather Forecast

Advertisements
Track Severe Weather on mobile